createdAt,value
2018-02-24T00:01:52.729Z,72.90
2018-02-24T00:04:20.508Z,75.47
2018-02-24T00:06:48.314Z,72.57
2018-02-24T00:09:16.106Z,76.03
2018-02-24T00:11:43.847Z,80.63
2018-02-24T00:14:12.606Z,82.53
2018-02-24T00:16:40.366Z,78.63
2018-02-24T00:19:08.290Z,82.57
2018-02-24T00:21:36.328Z,81.10
2018-02-24T00:24:04.106Z,79.50
2018-02-24T00:26:31.926Z,74.43
2018-02-24T00:28:59.726Z,85.37
2018-02-24T00:31:27.886Z,83.33
2018-02-24T00:33:56.386Z,89.30
2018-02-24T00:36:24.186Z,81.90
2018-02-24T00:38:51.986Z,77.70
2018-02-24T00:41:19.965Z,75.80
2018-02-24T00:43:47.765Z,72.07
2018-02-24T00:46:15.453Z,68.43
2018-02-24T00:48:43.245Z,68.27
2018-02-24T00:51:11.087Z,83.40
2018-02-24T00:53:38.927Z,75.83
2018-02-24T00:56:06.851Z,74.30
2018-02-24T00:58:34.686Z,78.67
2018-02-24T01:01:02.592Z,76.80
2018-02-24T01:03:30.550Z,86.27
2018-02-24T01:05:58.369Z,83.83
2018-02-24T01:08:26.228Z,94.30
2018-02-24T01:10:54.109Z,89.03
2018-02-24T01:13:21.877Z,95.47
2018-02-24T01:15:49.605Z,86.57
2018-02-24T01:18:17.345Z,84.60
2018-02-24T01:20:45.291Z,76.73
2018-02-24T01:23:13.065Z,75.67
2018-02-24T01:25:40.850Z,76.70
2018-02-24T01:28:08.706Z,77.57
2018-02-24T01:30:37.368Z,81.00
2018-02-24T01:33:05.488Z,87.53
2018-02-24T01:35:33.368Z,86.63
2018-02-24T01:38:01.569Z,79.50
2018-02-24T01:40:29.407Z,88.03
2018-02-24T01:42:57.208Z,79.77
2018-02-24T01:45:25.093Z,81.60
2018-02-24T01:47:53.108Z,84.87
2018-02-24T01:50:21.308Z,95.30
2018-02-24T01:52:49.108Z,88.40
2018-02-24T01:55:16.868Z,92.70
2018-02-24T01:57:45.414Z,88.80
2018-02-24T02:00:14.042Z,88.80
2018-02-24T02:02:41.906Z,87.43
2018-02-24T02:05:09.846Z,91.70
2018-02-24T02:07:37.646Z,91.03
2018-02-24T02:10:05.408Z,100.73
2018-02-24T02:12:33.226Z,90.60
2018-02-24T02:17:33.205Z,92.90
2018-02-24T02:20:01.885Z,81.63
2018-02-24T02:22:29.687Z,90.90
2018-02-24T02:24:57.526Z,88.47
2018-02-24T02:27:25.307Z,94.60
2018-02-24T02:29:53.146Z,96.10
2018-02-24T02:32:21.646Z,87.90
2018-02-24T02:34:49.738Z,86.00
2018-02-24T02:37:17.613Z,89.27
2018-02-24T02:39:45.367Z,97.10
2018-02-24T02:42:13.686Z,87.07
2018-02-24T02:44:42.206Z,85.80
2018-02-24T02:47:10.047Z,96.10
2018-02-24T02:49:38.185Z,99.60
2018-02-24T02:52:06.246Z,100.50
2018-02-24T02:54:34.066Z,99.93
2018-02-24T02:57:02.187Z,96.27
2018-02-24T02:59:29.906Z,94.33
2018-02-24T03:01:57.647Z,86.73
2018-02-24T03:04:25.547Z,85.90
2018-02-24T03:06:53.547Z,87.40
2018-02-24T03:09:21.346Z,79.87
2018-02-24T03:11:49.094Z,83.23
2018-02-24T03:14:16.926Z,86.97
2018-02-24T03:16:44.692Z,85.17
2018-02-24T03:19:13.366Z,92.13
2018-02-24T03:21:41.146Z,87.57
2018-02-24T03:24:09.865Z,82.07
2018-02-24T03:26:37.726Z,85.83
2018-02-24T03:29:05.585Z,86.53
2018-02-24T03:31:33.427Z,80.73
2018-02-24T03:34:01.165Z,78.23
2018-02-24T03:36:28.987Z,83.07
2018-02-24T03:38:56.966Z,79.67
2018-02-24T03:41:25.506Z,86.17
2018-02-24T03:43:53.846Z,77.23
2018-02-24T03:46:28.366Z,78.60
2018-02-24T03:48:56.247Z,85.27
2018-02-24T03:51:24.048Z,78.87
2018-02-24T03:53:51.845Z,80.57
2018-02-24T03:56:19.725Z,78.33
2018-02-24T03:58:47.726Z,79.83
2018-02-24T04:01:15.785Z,79.90
2018-02-24T04:03:43.505Z,88.97
2018-02-24T04:06:12.066Z,83.87
2018-02-24T04:08:39.886Z,76.70
2018-02-24T04:11:07.747Z,76.23
2018-02-24T04:13:35.507Z,87.33
2018-02-24T04:16:03.247Z,87.67
2018-02-24T04:18:31.969Z,75.90
2018-02-24T04:20:59.886Z,80.83
2018-02-24T04:23:27.805Z,84.97
2018-02-24T04:25:55.726Z,84.97
2018-02-24T04:28:23.586Z,87.20
2018-02-24T04:30:51.526Z,83.87
2018-02-24T04:33:20.085Z,84.27
2018-02-24T04:35:47.905Z,88.47
2018-02-24T04:38:15.686Z,89.43
2018-02-24T04:40:43.526Z,87.10
2018-02-24T04:43:11.666Z,91.87
2018-02-24T04:45:39.386Z,86.40
2018-02-24T04:48:07.232Z,84.50
2018-02-24T04:50:35.228Z,79.37
2018-02-24T04:53:03.006Z,78.90
2018-02-24T04:55:30.907Z,79.83
2018-02-24T04:57:58.766Z,81.27
2018-02-24T05:00:26.525Z,82.90
2018-02-24T05:02:54.306Z,83.20
2018-02-24T05:05:22.745Z,89.17
2018-02-24T05:07:50.547Z,79.30
2018-02-24T05:10:18.306Z,85.97
2018-02-24T05:12:46.825Z,80.67
2018-02-24T05:15:14.566Z,84.33
2018-02-24T05:17:43.206Z,83.10
2018-02-24T05:20:11.164Z,92.17
2018-02-24T05:22:38.913Z,92.80
2018-02-24T05:25:06.647Z,87.57
2018-02-24T05:27:34.452Z,84.80
2018-02-24T05:30:03.405Z,84.93
2018-02-24T05:32:31.227Z,95.00
2018-02-24T05:34:59.146Z,87.73
2018-02-24T05:37:27.126Z,87.30
2018-02-24T05:39:55.826Z,94.00
2018-02-24T05:42:24.646Z,86.73
2018-02-24T05:44:52.385Z,81.80
2018-02-24T05:47:20.266Z,89.73
2018-02-24T05:49:48.105Z,89.90
2018-02-24T05:52:15.965Z,87.80
2018-02-24T05:54:43.866Z,93.13
2018-02-24T05:57:11.646Z,88.67
2018-02-24T05:59:40.387Z,87.83
2018-02-24T06:02:08.930Z,78.40
2018-02-24T06:04:37.509Z,84.37
2018-02-24T06:07:05.349Z,93.97
2018-02-24T06:09:34.069Z,85.83
2018-02-24T06:12:01.831Z,87.40
2018-02-24T06:14:29.870Z,86.47
2018-02-24T06:16:57.649Z,85.83
2018-02-24T06:19:25.548Z,87.03
2018-02-24T06:21:53.407Z,84.73
2018-02-24T06:24:21.148Z,78.53
2018-02-24T06:26:49.029Z,89.33
2018-02-24T06:29:16.926Z,87.13
2018-02-24T06:31:45.526Z,83.70
2018-02-24T06:34:13.384Z,85.50
2018-02-24T06:36:41.306Z,83.90
2018-02-24T06:39:09.109Z,80.23
2018-02-24T06:41:36.965Z,76.07
2018-02-24T06:44:04.786Z,84.70
2018-02-24T06:46:32.565Z,75.17
2018-02-24T06:49:00.367Z,89.63
2018-02-24T06:51:28.387Z,93.80
2018-02-24T06:53:56.267Z,80.17
2018-02-24T06:56:25.134Z,93.57
2018-02-24T06:58:52.946Z,94.77
2018-02-24T07:01:20.685Z,84.80
2018-02-24T07:03:48.566Z,72.97
2018-02-24T07:06:16.385Z,79.27
2018-02-24T07:08:44.386Z,77.57
2018-02-24T07:11:12.226Z,76.37
2018-02-24T07:13:40.066Z,80.00
2018-02-24T07:16:07.845Z,75.60
2018-02-24T07:18:35.585Z,80.53
2018-02-24T07:21:04.225Z,87.30
2018-02-24T07:23:31.946Z,84.43
2018-02-24T07:25:59.610Z,75.60
2018-02-24T07:28:27.327Z,78.77
2018-02-24T07:30:55.026Z,78.33
2018-02-24T07:33:22.786Z,83.63
2018-02-24T07:35:50.608Z,75.50
2018-02-24T07:38:18.326Z,74.80
2018-02-24T07:40:46.022Z,82.13
2018-02-24T07:43:14.575Z,83.47
2018-02-24T07:45:42.290Z,82.30
2018-02-24T07:48:10.766Z,80.87
2018-02-24T07:50:38.570Z,81.40
2018-02-24T07:53:06.308Z,78.30
2018-02-24T07:55:34.047Z,73.90
2018-02-24T07:58:01.845Z,77.80
2018-02-24T08:00:29.813Z,78.43
2018-02-24T08:02:57.549Z,80.73
2018-02-24T08:05:25.309Z,78.70
2018-02-24T08:07:53.071Z,81.83
2018-02-24T08:10:20.770Z,81.83
2018-02-24T08:12:48.491Z,83.37
2018-02-24T08:15:16.990Z,85.93
2018-02-24T08:17:44.807Z,85.53
2018-02-24T08:20:12.530Z,87.50
2018-02-24T08:22:41.009Z,82.30
2018-02-24T08:25:09.548Z,92.37
2018-02-24T08:27:38.068Z,93.13
2018-02-24T08:30:05.928Z,93.30
2018-02-24T08:35:05.728Z,85.63
2018-02-24T08:37:33.488Z,82.37
2018-02-24T08:40:01.209Z,78.67
2018-02-24T08:42:29.041Z,79.67
2018-02-24T08:44:56.766Z,90.47
2018-02-24T08:47:24.493Z,91.87
2018-02-24T08:52:24.919Z,89.40
2018-02-24T08:54:52.686Z,85.47
2018-02-24T08:57:20.446Z,85.47
2018-02-24T08:59:48.206Z,80.27
2018-02-24T09:02:15.905Z,83.03
2018-02-24T09:04:44.205Z,93.40
2018-02-24T09:07:12.065Z,87.73
2018-02-24T09:09:39.825Z,88.23
2018-02-24T09:12:07.646Z,82.50
2018-02-24T09:14:35.488Z,85.03
2018-02-24T09:17:03.414Z,83.23
2018-02-24T09:19:31.246Z,88.83
2018-02-24T09:21:59.013Z,80.43
2018-02-24T09:24:27.108Z,81.23
2018-02-24T09:26:55.015Z,82.17
2018-02-24T09:29:22.886Z,82.20
2018-02-24T09:31:50.787Z,80.87
2018-02-24T09:34:18.586Z,79.27
2018-02-24T09:36:46.305Z,81.43
2018-02-24T09:39:14.246Z,80.83
2018-02-24T09:41:42.046Z,79.47
2018-02-24T09:44:10.066Z,76.30
2018-02-24T09:46:37.867Z,77.73
2018-02-24T09:49:06.486Z,90.63
2018-02-24T09:51:34.447Z,92.20
2018-02-24T09:54:03.046Z,85.77
2018-02-24T09:56:31.069Z,88.60
2018-02-24T09:58:58.992Z,89.77
2018-02-24T10:01:27.773Z,88.43
2018-02-24T10:03:55.717Z,90.60
2018-02-24T10:06:23.699Z,80.90
2018-02-24T10:08:51.569Z,79.00
2018-02-24T10:11:19.441Z,76.93
2018-02-24T10:13:47.170Z,82.33
2018-02-24T10:16:15.070Z,81.90
2018-02-24T10:18:42.969Z,75.53
2018-02-24T10:21:11.509Z,80.03
2018-02-24T10:23:40.031Z,81.37
2018-02-24T10:26:07.970Z,83.77
2018-02-24T10:28:35.887Z,81.17
2018-02-24T10:31:03.927Z,79.13
2018-02-24T10:33:31.728Z,89.47
2018-02-24T10:36:00.608Z,82.67
2018-02-24T10:38:29.288Z,89.20
2018-02-24T10:40:57.109Z,86.07
2018-02-24T10:43:25.248Z,83.40
2018-02-24T10:45:53.122Z,91.20
2018-02-24T10:48:22.049Z,88.27
2018-02-24T10:50:51.348Z,88.53
2018-02-24T10:53:20.107Z,91.80
2018-02-24T10:55:47.925Z,86.60
2018-02-24T10:58:16.588Z,89.87
2018-02-24T11:00:45.153Z,88.33
2018-02-24T11:03:12.868Z,96.10
2018-02-24T11:05:41.944Z,101.47
2018-02-24T11:08:09.725Z,89.83
2018-02-24T11:10:37.510Z,93.37
2018-02-24T11:13:06.131Z,88.10
2018-02-24T11:15:33.867Z,89.50
2018-02-24T11:18:01.698Z,91.30
2018-02-24T11:20:29.608Z,94.00
2018-02-24T11:22:57.544Z,90.00
2018-02-24T11:25:25.706Z,100.40
2018-02-24T11:27:53.596Z,89.07
2018-02-24T11:30:21.647Z,85.63
2018-02-24T11:32:49.487Z,80.43
2018-02-24T11:35:17.294Z,83.13
2018-02-24T11:37:45.253Z,81.43
2018-02-24T11:40:12.941Z,79.90
2018-02-24T11:42:40.670Z,84.13
2018-02-24T11:45:08.626Z,80.17
2018-02-24T11:47:36.506Z,75.50
2018-02-24T11:50:04.314Z,81.00
2018-02-24T11:52:32.348Z,83.53
2018-02-24T11:55:00.949Z,85.97
2018-02-24T11:57:28.908Z,74.00
2018-02-24T11:59:57.028Z,76.60
2018-02-24T12:02:24.898Z,76.17
2018-02-24T12:04:53.750Z,69.07
2018-02-24T12:07:21.968Z,77.93
2018-02-24T12:09:49.893Z,85.40
2018-02-24T12:12:17.688Z,95.80
2018-02-24T12:14:45.588Z,78.97
2018-02-24T12:17:14.238Z,72.80
2018-02-24T12:19:42.147Z,71.83
2018-02-24T12:22:10.009Z,80.40
2018-02-24T12:24:37.851Z,70.70
2018-02-24T12:27:05.697Z,67.53
2018-02-24T12:29:33.549Z,70.93
2018-02-24T12:32:01.412Z,72.70
2018-02-24T12:34:31.225Z,74.57
2018-02-24T12:36:59.046Z,71.43
2018-02-24T12:39:27.008Z,75.60
2018-02-24T12:44:26.991Z,68.70
2018-02-24T12:46:54.790Z,60.20
2018-02-24T12:49:22.679Z,65.70
2018-02-24T12:51:50.460Z,65.20
2018-02-24T12:54:18.338Z,64.27
2018-02-24T12:56:46.318Z,66.33
2018-02-24T12:59:14.371Z,60.80
2018-02-24T13:01:42.397Z,58.03
2018-02-24T13:04:11.210Z,61.80
2018-02-24T13:06:39.010Z,63.17
2018-02-24T13:09:07.491Z,61.77
2018-02-24T13:11:35.390Z,63.43
2018-02-24T13:14:04.550Z,60.57
2018-02-24T13:16:32.851Z,53.80
2018-02-24T13:19:00.690Z,51.57
2018-02-24T13:21:29.250Z,48.33
2018-02-24T13:23:57.197Z,48.23
2018-02-24T13:26:25.250Z,44.47
2018-02-24T13:28:53.729Z,47.57
2018-02-24T13:31:23.073Z,45.63
2018-02-24T13:33:51.412Z,52.93
2018-02-24T13:36:20.250Z,42.87
2018-02-24T13:38:48.250Z,42.77
2018-02-24T13:41:16.452Z,43.90
2018-02-24T13:43:44.470Z,45.23
2018-02-24T13:46:12.430Z,42.23
2018-02-24T13:48:40.871Z,45.90
2018-02-24T13:51:08.787Z,39.63
2018-02-24T13:53:37.127Z,42.53
2018-02-24T13:56:05.072Z,42.27
2018-02-24T13:58:33.247Z,45.00
2018-02-24T14:01:01.078Z,42.70
2018-02-24T14:03:29.649Z,30.30
2018-02-24T14:05:58.687Z,18.00
2018-02-24T14:08:26.908Z,17.47
2018-02-24T14:10:55.067Z,18.90
2018-02-24T14:13:24.727Z,17.80
2018-02-24T14:15:52.706Z,18.83
2018-02-24T14:18:20.647Z,22.97
2018-02-24T14:20:48.577Z,20.83
2018-02-24T14:23:17.568Z,24.67
2018-02-24T14:25:46.369Z,18.77
2018-02-24T14:28:14.929Z,16.60
2018-02-24T14:30:43.487Z,14.80
2018-02-24T14:33:11.427Z,14.63
2018-02-24T14:35:40.109Z,13.53
2018-02-24T14:38:07.968Z,13.07
2018-02-24T14:40:35.807Z,12.63
2018-02-24T14:43:04.996Z,12.77
2018-02-24T14:45:32.768Z,11.43
2018-02-24T14:48:00.586Z,9.37
2018-02-24T14:50:28.730Z,11.33
2018-02-24T14:52:57.326Z,10.03
2018-02-24T14:55:25.407Z,9.50
2018-02-24T14:57:53.567Z,10.33
2018-02-24T15:00:21.414Z,11.00
2018-02-24T15:02:51.815Z,10.70
2018-02-24T15:05:19.875Z,10.97
2018-02-24T15:07:48.096Z,47.03
2018-02-24T15:10:15.997Z,52.93
2018-02-24T15:12:43.906Z,56.50
2018-02-24T15:15:11.728Z,55.30
2018-02-24T15:17:41.071Z,55.63
2018-02-24T15:20:09.028Z,53.17
2018-02-24T15:22:37.367Z,56.60
2018-02-24T15:25:07.096Z,57.33
2018-02-24T15:27:35.133Z,57.93
2018-02-24T15:30:02.948Z,52.13
2018-02-24T15:32:31.018Z,53.97
2018-02-24T15:34:58.968Z,55.13
2018-02-24T15:37:27.041Z,46.00
2018-02-24T15:39:55.599Z,55.83
2018-02-24T15:42:23.430Z,52.17
2018-02-24T15:44:51.348Z,53.50
2018-02-24T15:47:19.248Z,53.03
2018-02-24T15:49:47.156Z,52.50
2018-02-24T15:52:15.117Z,52.17
2018-02-24T15:54:42.910Z,54.33
2018-02-24T15:57:10.809Z,56.60
2018-02-24T15:59:39.048Z,53.03
2018-02-24T16:02:07.968Z,44.97
2018-02-24T16:04:35.970Z,51.77
2018-02-24T16:07:03.751Z,52.50
2018-02-24T16:09:32.574Z,51.20
2018-02-24T16:12:00.411Z,51.23
2018-02-24T16:14:28.611Z,53.43
2018-02-24T16:16:56.530Z,50.27
2018-02-24T16:19:24.391Z,44.27
2018-02-24T16:21:52.212Z,46.57
2018-02-24T16:24:19.951Z,52.67
2018-02-24T16:26:47.831Z,48.07
2018-02-24T16:29:15.689Z,34.17
2018-02-24T16:31:43.734Z,24.43
2018-02-24T16:34:12.349Z,16.60
2018-02-24T16:36:40.244Z,15.50
2018-02-24T16:39:07.968Z,14.40
2018-02-24T16:41:35.828Z,11.60
2018-02-24T16:44:03.941Z,13.13
2018-02-24T16:46:31.884Z,13.67
2018-02-24T16:48:59.917Z,13.83
2018-02-24T16:51:27.792Z,18.33
2018-02-24T16:53:55.684Z,16.80
2018-02-24T16:56:23.652Z,19.40
2018-02-24T16:58:51.514Z,17.87
2018-02-24T17:01:19.427Z,17.10
2018-02-24T17:03:47.428Z,17.07
2018-02-24T17:06:15.439Z,18.40
2018-02-24T17:08:43.508Z,16.13
2018-02-24T17:11:11.648Z,19.53
2018-02-24T17:13:41.869Z,24.13
2018-02-24T17:16:09.647Z,21.07
2018-02-24T17:18:37.607Z,21.33
2018-02-24T17:21:05.453Z,20.27
2018-02-24T17:23:33.253Z,22.70
2018-02-24T17:26:01.168Z,21.20
2018-02-24T17:28:29.128Z,20.50
2018-02-24T17:30:57.689Z,21.07
2018-02-24T17:33:25.571Z,23.43
2018-02-24T17:35:53.308Z,23.80
2018-02-24T17:38:21.129Z,23.43
2018-02-24T17:40:49.709Z,22.90
2018-02-24T17:43:17.708Z,22.60
2018-02-24T17:45:45.628Z,24.03
2018-02-24T17:48:13.487Z,23.30
2018-02-24T17:50:42.270Z,22.47
2018-02-24T17:53:10.487Z,21.97
2018-02-24T17:55:38.347Z,21.60
2018-02-24T17:58:06.171Z,35.37
2018-02-24T18:00:34.716Z,29.17
2018-02-24T18:03:03.587Z,26.03
2018-02-24T18:05:31.506Z,28.00
2018-02-24T18:07:59.407Z,27.97
2018-02-24T18:10:27.247Z,27.30
2018-02-24T18:12:55.175Z,28.50
2018-02-24T18:15:23.248Z,25.90
2018-02-24T18:17:51.394Z,23.73
2018-02-24T18:20:20.728Z,28.23
2018-02-24T18:22:49.346Z,27.23
2018-02-24T18:25:17.470Z,28.67
2018-02-24T18:27:45.832Z,26.83
2018-02-24T18:30:13.855Z,25.87
2018-02-24T18:32:41.807Z,23.50
2018-02-24T18:35:09.649Z,27.83
2018-02-24T18:37:37.531Z,28.63
2018-02-24T18:40:05.671Z,29.00
2018-02-24T18:42:33.568Z,25.97
2018-02-24T18:45:01.585Z,26.77
2018-02-24T18:47:29.574Z,23.47
2018-02-24T18:49:57.420Z,25.83
2018-02-24T18:52:25.313Z,24.77
2018-02-24T18:54:53.106Z,25.37
2018-02-24T18:57:21.010Z,27.00
2018-02-24T18:59:48.866Z,26.83
2018-02-24T19:02:17.748Z,22.10
2018-02-24T19:04:45.746Z,23.10
2018-02-24T19:07:13.648Z,25.30
2018-02-24T19:09:41.611Z,28.07
2018-02-24T19:12:09.473Z,31.90
2018-02-24T19:14:37.700Z,31.77
2018-02-24T19:17:05.771Z,25.93
2018-02-24T19:19:33.630Z,24.17
2018-02-24T19:22:01.587Z,24.63
2018-02-24T19:24:29.629Z,27.10
2018-02-24T19:26:57.606Z,20.60
2018-02-24T19:29:27.477Z,22.07
2018-02-24T19:31:55.268Z,24.83
2018-02-24T19:34:23.256Z,23.30
2018-02-24T19:36:51.827Z,19.57
2018-02-24T19:39:19.647Z,16.50
2018-02-24T19:41:47.669Z,20.20
2018-02-24T19:44:15.468Z,19.73
2018-02-24T19:46:43.413Z,15.83
2018-02-24T19:49:11.371Z,21.87
2018-02-24T19:51:39.251Z,16.63
2018-02-24T19:54:07.110Z,17.57
2018-02-24T19:56:34.950Z,19.77
2018-02-24T19:59:03.030Z,21.40
2018-02-24T20:01:30.753Z,19.73
2018-02-24T20:03:58.692Z,20.70
2018-02-24T20:06:26.510Z,19.57
2018-02-24T20:08:55.679Z,21.40
2018-02-24T20:11:23.609Z,20.87
2018-02-24T20:13:51.451Z,18.17
2018-02-24T20:16:19.370Z,21.20
2018-02-24T20:18:47.509Z,19.60
2018-02-24T20:21:15.389Z,20.93
2018-02-24T20:23:43.258Z,18.90
2018-02-24T20:26:11.289Z,21.57
2018-02-24T20:28:39.288Z,18.50
2018-02-24T20:31:07.294Z,20.87
2018-02-24T20:33:35.069Z,21.93
2018-02-24T20:36:03.772Z,21.73
2018-02-24T20:38:32.608Z,20.97
2018-02-24T20:41:00.410Z,18.33
2018-02-24T20:43:28.249Z,20.73
2018-02-24T20:45:57.048Z,16.13
2018-02-24T20:48:25.137Z,19.37
2018-02-24T20:50:53.080Z,19.23
2018-02-24T20:53:21.007Z,17.37
2018-02-24T20:55:48.847Z,18.63
2018-02-24T20:58:16.831Z,18.73
2018-02-24T21:00:44.707Z,18.23
2018-02-24T21:03:12.752Z,15.03
2018-02-24T21:05:40.711Z,21.67
2018-02-24T21:08:08.752Z,19.77
2018-02-24T21:10:36.551Z,18.83
2018-02-24T21:13:04.420Z,15.60
2018-02-24T21:15:32.239Z,15.63
2018-02-24T21:18:00.014Z,14.93
2018-02-24T21:20:28.070Z,16.63
2018-02-24T21:22:55.870Z,15.07
2018-02-24T21:25:23.650Z,15.87
2018-02-24T21:27:52.051Z,14.77
2018-02-24T21:30:21.311Z,12.57
2018-02-24T21:32:49.211Z,12.33
2018-02-24T21:35:17.092Z,13.53
2018-02-24T21:37:45.132Z,10.37
2018-02-24T21:40:13.010Z,8.87
2018-02-24T21:42:40.785Z,10.20
2018-02-24T21:45:08.700Z,11.00
2018-02-24T21:47:36.650Z,11.60
2018-02-24T21:50:04.471Z,10.77
2018-02-24T21:52:32.412Z,8.40
2018-02-24T21:55:00.346Z,8.57
2018-02-24T21:57:28.507Z,8.13
2018-02-24T21:59:56.318Z,10.57
2018-02-24T22:02:24.295Z,12.47
2018-02-24T22:04:52.235Z,6.47
2018-02-24T22:07:21.878Z,9.63
2018-02-24T22:09:49.729Z,8.90
2018-02-24T22:12:17.885Z,10.87
2018-02-24T22:14:45.725Z,7.97
2018-02-24T22:17:13.608Z,9.13
2018-02-24T22:19:41.808Z,10.80
2018-02-24T22:22:09.881Z,13.53
2018-02-24T22:24:37.812Z,9.00
2018-02-24T22:27:06.953Z,8.27
2018-02-24T22:29:34.928Z,12.30
2018-02-24T22:32:02.846Z,10.00
2018-02-24T22:34:31.008Z,9.90
2018-02-24T22:36:59.082Z,10.67
2018-02-24T22:39:26.969Z,13.83
2018-02-24T22:41:54.928Z,11.07
2018-02-24T22:44:24.577Z,10.67
2018-02-24T22:46:52.368Z,11.27
2018-02-24T22:49:21.247Z,8.73
2018-02-24T22:51:50.388Z,8.07
2018-02-24T22:54:18.467Z,9.67
2018-02-24T22:56:46.316Z,9.97
2018-02-24T22:59:14.241Z,13.10
2018-02-24T23:01:42.089Z,10.10
2018-02-24T23:04:09.955Z,12.40
2018-02-24T23:06:38.009Z,7.10
2018-02-24T23:09:05.888Z,8.93
2018-02-24T23:11:33.728Z,10.23
2018-02-24T23:14:03.089Z,10.10
2018-02-24T23:16:31.008Z,10.70
2018-02-24T23:18:59.136Z,9.80
2018-02-24T23:21:27.138Z,11.87
2018-02-24T23:23:55.109Z,10.10
2018-02-24T23:26:22.932Z,12.07
2018-02-24T23:28:51.808Z,13.47
2018-02-24T23:31:19.788Z,12.63
2018-02-24T23:33:47.748Z,11.97
2018-02-24T23:36:15.669Z,13.30
2018-02-24T23:38:43.530Z,11.20
2018-02-24T23:41:11.648Z,14.10
2018-02-24T23:43:39.588Z,9.83
2018-02-24T23:46:07.588Z,11.03
2018-02-24T23:48:35.830Z,9.20
2018-02-24T23:51:04.568Z,11.03
2018-02-24T23:53:32.388Z,10.30
2018-02-24T23:56:00.251Z,11.13
2018-02-24T23:58:28.208Z,13.13
